Time;durP1;ratioP1;P1;durP2;ratioP2;P2;SDS_P1;SDS_P2;PMS_P1;PMS_P2;Temp;Humidity;BMP_temperature;BMP_pressure;BME280_temperature;BME280_humidity;BME280_pressure;Samples;Min_cycle;Max_cycle;Signal;HPM_P1;HPM_P2
2021/12/26 00:01:37;;;;;;;;;;;-4.50;99.90;;;;;;5071125;28;20368;-72
2021/12/26 00:04:04;;;;;;;;;;;-4.60;99.90;;;;;;5042280;28;19905;-72
2021/12/26 00:06:29;;;;;;;;;;;-4.60;99.90;;;;;;5033365;28;19923;-71
2021/12/26 00:08:57;;;;;;;;;;;-4.60;99.90;;;;;;5041710;28;20350;-71
2021/12/26 00:11:24;;;;;;;;;;;-4.60;99.90;;;;;;5052586;28;20295;-73
2021/12/26 00:13:54;;;;;;;;;;;-3.10;99.90;;;;;;5070785;28;19976;-71
2021/12/26 00:16:20;;;;;;;;;;;-4.60;99.90;;;;;;5071025;28;20405;-72
2021/12/26 00:18:46;;;;;;;;;;;-4.60;99.90;;;;;;5052475;28;19950;-71
2021/12/26 00:21:13;;;;;;;;;;;-4.70;99.90;;;;;;5070316;28;19916;-72
2021/12/26 00:23:39;;;;;;;;;;;-4.80;99.90;;;;;;5052590;28;19912;-72
2021/12/26 00:26:04;;;;;;;;;;;-4.70;99.90;;;;;;5070512;28;20369;-72
2021/12/26 00:28:30;;;;;;;;;;;-4.80;99.90;;;;;;5052652;28;20319;-72
2021/12/26 00:30:57;;;;;;;;;;;-4.80;99.90;;;;;;5052317;28;20303;-72
2021/12/26 00:33:23;;;;;;;;;;;-4.90;99.90;;;;;;5052763;28;19935;-72
2021/12/26 00:35:49;;;;;;;;;;;-4.90;99.90;;;;;;5070339;28;20325;-72
2021/12/26 00:38:15;;;;;;;;;;;-4.90;99.90;;;;;;5067557;28;19911;-71
2021/12/26 00:40:41;;;;;;;;;;;-4.90;99.90;;;;;;5069785;28;20368;-72
2021/12/26 00:43:07;;;;;;;;;;;-4.90;99.90;;;;;;5070413;28;19916;-72
2021/12/26 00:45:32;;;;;;;;;;;-5.00;99.90;;;;;;5070331;28;19908;-73
2021/12/26 00:47:58;;;;;;;;;;;-5.00;99.90;;;;;;5070435;28;19916;-73
2021/12/26 00:50:25;;;;;;;;;;;-5.00;99.90;;;;;;5070357;28;19904;-73
2021/12/26 00:52:51;;;;;;;;;;;-5.00;99.90;;;;;;5070791;28;20472;-73
2021/12/26 00:55:17;;;;;;;;;;;-5.00;99.90;;;;;;5050249;28;19920;-72
2021/12/26 00:57:42;;;;;;;;;;;-5.00;99.90;;;;;;5032862;28;19920;-73
2021/12/26 01:00:12;;;;;;;;;;;-5.00;99.90;;;;;;5050661;28;19909;-72
2021/12/26 01:02:37;;;;;;;;;;;-5.00;99.90;;;;;;5074258;28;19909;-71
2021/12/26 01:05:05;;;;;;;;;;;-4.50;99.90;;;;;;5073339;28;19915;-72
2021/12/26 01:07:43;;;;;;;;;;;-5.10;99.90;;;;;;5074671;28;19970;-72
2021/12/26 01:10:09;;;;;;;;;;;-5.10;99.90;;;;;;5054034;28;19927;-72
2021/12/26 01:12:36;;;;;;;;;;;-5.10;99.90;;;;;;5054671;28;19912;-73
2021/12/26 01:15:07;;;;;;;;;;;-5.20;99.90;;;;;;5053581;28;19916;-72
2021/12/26 01:17:34;;;;;;;;;;;-5.20;99.90;;;;;;5074543;28;20825;-72
2021/12/26 01:20:02;;;;;;;;;;;-5.20;99.90;;;;;;5073232;28;20247;-72
2021/12/26 01:22:28;;;;;;;;;;;-5.20;99.90;;;;;;5074261;28;19909;-72
2021/12/26 01:24:57;;;;;;;;;;;-5.20;99.90;;;;;;5073405;28;19912;-73
2021/12/26 01:27:26;;;;;;;;;;;-5.20;99.90;;;;;;5055570;28;20011;-71
2021/12/26 01:29:53;;;;;;;;;;;-5.30;99.90;;;;;;5072710;28;19951;-71
2021/12/26 01:32:18;;;;;;;;;;;-5.30;99.90;;;;;;5074109;28;19909;-72
2021/12/26 01:34:45;;;;;;;;;;;-5.40;99.90;;;;;;5073196;28;19919;-71
2021/12/26 01:37:10;;;;;;;;;;;-5.40;99.90;;;;;;5073972;28;20340;-72
2021/12/26 01:39:36;;;;;;;;;;;-5.40;99.90;;;;;;5073109;28;19912;-72
2021/12/26 01:42:03;;;;;;;;;;;-5.40;99.90;;;;;;5074043;28;19986;-72
2021/12/26 01:44:29;;;;;;;;;;;-5.40;99.90;;;;;;5059626;28;19952;-72
2021/12/26 01:46:55;;;;;;;;;;;-5.40;99.90;;;;;;5053817;28;19925;-72
2021/12/26 01:49:22;;;;;;;;;;;-5.50;99.90;;;;;;5065706;28;19912;-71
2021/12/26 01:51:49;;;;;;;;;;;-5.40;99.90;;;;;;5055346;28;20011;-71
2021/12/26 01:54:26;;;;;;;;;;;-5.50;99.90;;;;;;5073077;28;19915;-72
2021/12/26 01:56:52;;;;;;;;;;;-5.50;99.90;;;;;;5055246;28;19916;-71
2021/12/26 01:59:17;;;;;;;;;;;-5.60;99.90;;;;;;5072629;28;19908;-72
2021/12/26 02:01:43;;;;;;;;;;;-5.60;99.90;;;;;;5073441;28;19919;-72
2021/12/26 02:04:09;;;;;;;;;;;-5.60;99.90;;;;;;5072453;28;20322;-71
2021/12/26 02:06:34;;;;;;;;;;;-5.50;99.90;;;;;;5073000;28;19920;-72
2021/12/26 02:09:00;;;;;;;;;;;-5.60;99.90;;;;;;5072946;28;19979;-72
2021/12/26 02:11:26;;;;;;;;;;;-5.60;99.90;;;;;;5055126;28;19916;-72
2021/12/26 02:13:51;;;;;;;;;;;-5.60;99.90;;;;;;5054650;28;20003;-72
2021/12/26 02:16:17;;;;;;;;;;;-5.60;99.90;;;;;;5072876;28;19923;-72
2021/12/26 02:18:43;;;;;;;;;;;-5.60;99.90;;;;;;5047694;28;19955;-72
2021/12/26 02:28:38;;;;;;;;;;;-5.60;99.90;;;;;;5072609;28;19973;-71
2021/12/26 02:31:04;;;;;;;;;;;-5.60;99.90;;;;;;5072178;28;19956;-72
2021/12/26 02:33:29;;;;;;;;;;;-5.60;99.90;;;;;;5053992;28;19943;-72
2021/12/26 02:35:55;;;;;;;;;;;-5.50;99.90;;;;;;5072479;28;19916;-71
2021/12/26 02:38:21;;;;;;;;;;;-5.60;99.90;;;;;;5067671;28;19905;-72
2021/12/26 02:40:48;;;;;;;;;;;-5.70;99.90;;;;;;5051917;28;19986;-73
2021/12/26 02:43:16;;;;;;;;;;;-5.70;99.90;;;;;;5055419;28;19966;-72
2021/12/26 02:45:42;;;;;;;;;;;-5.70;99.90;;;;;;5072209;28;19912;-73
2021/12/26 02:48:08;;;;;;;;;;;-5.70;99.90;;;;;;5071858;28;20354;-72
2021/12/26 02:50:34;;;;;;;;;;;-5.70;99.90;;;;;;5072024;28;19904;-73
2021/12/26 02:53:01;;;;;;;;;;;-5.70;99.90;;;;;;5071772;28;19953;-72
2021/12/26 02:55:27;;;;;;;;;;;-5.70;99.90;;;;;;5072041;28;19905;-72
2021/12/26 02:57:54;;;;;;;;;;;-5.70;99.90;;;;;;5072190;28;19962;-72
2021/12/26 03:00:21;;;;;;;;;;;-5.70;99.90;;;;;;5053657;28;19939;-73
2021/12/26 03:02:49;;;;;;;;;;;-5.70;99.90;;;;;;5072488;28;20009;-72
2021/12/26 03:05:17;;;;;;;;;;;-5.80;99.90;;;;;;5033716;28;19908;-72
2021/12/26 03:07:44;;;;;;;;;;;-5.80;99.90;;;;;;5033626;28;19909;-73
2021/12/26 03:10:17;;;;;;;;;;;-5.80;99.90;;;;;;5070530;28;19924;-73
2021/12/26 03:12:43;;;;;;;;;;;-5.90;99.90;;;;;;5072035;28;19918;-72
2021/12/26 03:15:10;;;;;;;;;;;-5.90;99.90;;;;;;5071325;28;20494;-72
2021/12/26 03:17:36;;;;;;;;;;;-5.90;99.90;;;;;;5071957;28;19931;-72
2021/12/26 03:20:06;;;;;;;;;;;-5.90;99.90;;;;;;5070989;28;19966;-71
2021/12/26 03:22:31;;;;;;;;;;;-5.90;99.90;;;;;;5053610;28;19962;-71
2021/12/26 03:24:57;;;;;;;;;;;-5.80;99.90;;;;;;5070707;28;19912;-71
2021/12/26 03:27:22;;;;;;;;;;;-5.90;99.90;;;;;;5071454;28;19934;-73
2021/12/26 03:29:48;;;;;;;;;;;-5.90;99.90;;;;;;5070640;28;19916;-72
2021/12/26 03:32:14;;;;;;;;;;;-6.00;99.90;;;;;;5071798;28;20007;-73
2021/12/26 03:34:46;;;;;;;;;;;-5.90;99.90;;;;;;5053264;28;19908;-72
2021/12/26 03:37:12;;;;;;;;;;;-6.00;99.90;;;;;;5071672;28;19916;-71
2021/12/26 03:39:38;;;;;;;;;;;-6.00;99.90;;;;;;5052597;28;20385;-71
2021/12/26 03:42:03;;;;;;;;;;;-5.90;99.90;;;;;;5071503;28;19920;-71
2021/12/26 03:44:29;;;;;;;;;;;-5.90;99.90;;;;;;5052956;28;19982;-72
2021/12/26 03:46:55;;;;;;;;;;;-5.90;99.90;;;;;;5071618;28;20338;-72
2021/12/26 03:49:21;;;;;;;;;;;-5.90;99.90;;;;;;5070016;28;19961;-72
2021/12/26 03:51:47;;;;;;;;;;;-5.90;99.90;;;;;;5071273;28;20283;-71
2021/12/26 03:54:13;;;;;;;;;;;-5.90;99.90;;;;;;5059188;28;20376;-71
2021/12/26 03:56:38;;;;;;;;;;;-5.90;99.90;;;;;;5051290;28;19917;-72
2021/12/26 03:59:04;;;;;;;;;;;-5.90;99.90;;;;;;5042575;28;20430;-72
2021/12/26 04:01:30;;;;;;;;;;;-5.90;99.90;;;;;;5071108;28;20371;-72
2021/12/26 04:03:55;;;;;;;;;;;-5.90;99.90;;;;;;5070570;28;19934;-72
2021/12/26 04:06:21;;;;;;;;;;;-5.80;99.90;;;;;;5053064;28;19918;-72
2021/12/26 04:08:47;;;;;;;;;;;-5.90;99.90;;;;;;5070277;28;19913;-73
2021/12/26 04:11:13;;;;;;;;;;;-5.90;99.90;;;;;;5052552;28;19912;-72
2021/12/26 04:13:39;;;;;;;;;;;-6.00;99.90;;;;;;5052477;28;20297;-72
2021/12/26 04:16:04;;;;;;;;;;;-6.10;99.90;;;;;;5052678;28;20022;-71
2021/12/26 04:18:30;;;;;;;;;;;-6.00;99.90;;;;;;5070165;28;19908;-72
2021/12/26 04:20:55;;;;;;;;;;;-6.10;99.90;;;;;;5070751;28;19915;-72
2021/12/26 04:23:21;;;;;;;;;;;-6.10;99.90;;;;;;5070360;28;19908;-71
2021/12/26 04:25:47;;;;;;;;;;;-6.00;99.90;;;;;;5052621;28;19912;-72
2021/12/26 04:28:17;;;;;;;;;;;-6.00;99.90;;;;;;5052078;28;19927;-72
2021/12/26 04:30:43;;;;;;;;;;;-6.00;99.90;;;;;;5070553;28;19912;-72
2021/12/26 04:33:09;;;;;;;;;;;-5.60;99.90;;;;;;5070557;28;19973;-72
2021/12/26 04:35:34;;;;;;;;;;;-6.00;99.90;;;;;;5070795;28;19905;-72
2021/12/26 04:38:00;;;;;;;;;;;-6.00;99.90;;;;;;5071954;28;19909;-73
2021/12/26 04:40:26;;;;;;;;;;;-6.00;99.90;;;;;;5074116;28;19912;-73
2021/12/26 04:42:51;;;;;;;;;;;-5.90;99.90;;;;;;5074939;28;19924;-73
2021/12/26 04:45:17;;;;;;;;;;;-5.90;99.90;;;;;;5056365;28;20020;-73
2021/12/26 04:47:43;;;;;;;;;;;-5.90;99.90;;;;;;5056292;28;19946;-72
2021/12/26 04:50:12;;;;;;;;;;;-5.90;99.90;;;;;;5055722;28;20279;-73
2021/12/26 04:52:39;;;;;;;;;;;-6.00;99.90;;;;;;5074945;28;19948;-71
2021/12/26 04:55:05;;;;;;;;;;;-6.00;99.90;;;;;;5055314;28;19905;-71
2021/12/26 04:57:31;;;;;;;;;;;-6.10;99.90;;;;;;5054831;28;20016;-71
2021/12/26 04:59:57;;;;;;;;;;;-6.20;99.90;;;;;;5071110;28;19958;-71
2021/12/26 05:02:23;;;;;;;;;;;-6.10;99.90;;;;;;5074477;28;19921;-72
2021/12/26 05:04:48;;;;;;;;;;;-6.20;99.90;;;;;;5056130;28;19908;-72
2021/12/26 05:07:14;;;;;;;;;;;-6.20;99.90;;;;;;5074295;28;19955;-72
2021/12/26 05:09:41;;;;;;;;;;;-6.20;99.90;;;;;;5073222;28;20007;-72
2021/12/26 05:12:07;;;;;;;;;;;-6.30;99.90;;;;;;5056156;28;19919;-72
2021/12/26 05:14:33;;;;;;;;;;;-6.20;99.90;;;;;;5073620;28;19904;-72
2021/12/26 05:16:58;;;;;;;;;;;-6.30;99.90;;;;;;5074431;28;20342;-73
2021/12/26 05:19:24;;;;;;;;;;;-6.20;99.90;;;;;;5055210;28;19908;-72
2021/12/26 05:21:49;;;;;;;;;;;-6.20;99.90;;;;;;5056080;28;19916;-72
2021/12/26 05:24:15;;;;;;;;;;;-6.20;99.90;;;;;;5055224;28;19908;-72
2021/12/26 05:26:41;;;;;;;;;;;-6.30;99.90;;;;;;5073666;28;19912;-72
2021/12/26 05:29:06;;;;;;;;;;;-6.30;99.90;;;;;;5072895;28;20420;-72
2021/12/26 05:31:32;;;;;;;;;;;-6.30;99.90;;;;;;5073775;28;19916;-71
2021/12/26 05:33:57;;;;;;;;;;;-6.30;99.90;;;;;;5073251;28;20042;-72
2021/12/26 05:36:23;;;;;;;;;;;-6.30;99.90;;;;;;5073853;28;19923;-72
2021/12/26 05:38:48;;;;;;;;;;;-6.30;99.90;;;;;;5046972;28;20022;-73
2021/12/26 05:41:14;;;;;;;;;;;-6.30;99.90;;;;;;5034480;28;20368;-72
2021/12/26 05:43:40;;;;;;;;;;;-6.40;99.90;;;;;;5058697;28;20015;-72
2021/12/26 05:46:06;;;;;;;;;;;-6.30;99.90;;;;;;5054299;28;19916;-73
2021/12/26 05:48:32;;;;;;;;;;;-6.30;99.90;;;;;;5071632;28;20286;-72
2021/12/26 05:50:57;;;;;;;;;;;-6.30;99.90;;;;;;5071889;28;19966;-72
2021/12/26 05:53:23;;;;;;;;;;;-6.30;99.90;;;;;;5053829;28;20352;-70
2021/12/26 05:55:48;;;;;;;;;;;-6.30;99.90;;;;;;5072011;28;19904;-73
2021/12/26 05:58:14;;;;;;;;;;;-6.30;99.90;;;;;;5071977;28;19912;-73
2021/12/26 06:00:40;;;;;;;;;;;-6.30;99.90;;;;;;5071978;28;19908;-72
2021/12/26 06:03:05;;;;;;;;;;;-6.30;99.90;;;;;;5071369;28;19905;-73
2021/12/26 06:05:31;;;;;;;;;;;-6.30;99.90;;;;;;5071903;28;19908;-73
2021/12/26 06:07:56;;;;;;;;;;;-6.30;99.90;;;;;;5053925;28;19919;-71
2021/12/26 06:10:22;;;;;;;;;;;-6.30;99.90;;;;;;5071473;28;19909;-71
2021/12/26 06:12:48;;;;;;;;;;;-6.30;99.90;;;;;;5072612;28;19917;-71
2021/12/26 06:15:14;;;;;;;;;;;-6.20;99.90;;;;;;5071725;28;19904;-72
2021/12/26 06:17:39;;;;;;;;;;;-6.20;99.90;;;;;;5072807;28;19967;-71
2021/12/26 06:20:06;;;;;;;;;;;-6.20;99.90;;;;;;5052988;28;19938;-71
2021/12/26 06:22:32;;;;;;;;;;;-6.20;99.90;;;;;;5071625;28;20411;-72
2021/12/26 06:24:57;;;;;;;;;;;-6.10;99.90;;;;;;5035692;28;19999;-72
2021/12/26 06:27:23;;;;;;;;;;;-6.20;99.90;;;;;;5051950;28;19921;-72
2021/12/26 06:29:48;;;;;;;;;;;-6.10;99.90;;;;;;5067269;28;19913;-72
2021/12/26 06:32:14;;;;;;;;;;;-6.20;99.90;;;;;;5071871;28;19912;-72
2021/12/26 06:34:40;;;;;;;;;;;-6.10;99.90;;;;;;5055849;28;19935;-72
2021/12/26 06:37:05;;;;;;;;;;;-6.10;99.90;;;;;;5033613;28;19923;-72
2021/12/26 06:39:31;;;;;;;;;;;-6.10;99.90;;;;;;5067576;28;19905;-72
2021/12/26 06:41:56;;;;;;;;;;;-6.00;99.90;;;;;;5024593;28;1355691;-72
2021/12/26 06:44:23;;;;;;;;;;;-6.00;99.90;;;;;;5071760;28;19916;-73
2021/12/26 06:46:48;;;;;;;;;;;-6.00;99.90;;;;;;5072655;28;19936;-72
2021/12/26 06:49:17;;;;;;;;;;;-5.90;99.90;;;;;;5041978;28;19944;-71
2021/12/26 06:51:46;;;;;;;;;;;-7.10;99.90;;;;;;5051649;28;19944;-72
2021/12/26 06:54:12;;;;;;;;;;;-5.90;99.90;;;;;;5045062;28;19908;-71
2021/12/26 06:56:37;;;;;;;;;;;-5.80;99.90;;;;;;5054071;28;20402;-72
2021/12/26 06:59:03;;;;;;;;;;;-5.80;99.90;;;;;;5070590;28;19915;-71
2021/12/26 07:01:29;;;;;;;;;;;-5.60;99.90;;;;;;5071996;28;19951;-71
2021/12/26 07:03:55;;;;;;;;;;;-5.20;99.90;;;;;;5071430;28;20012;-72
2021/12/26 07:06:20;;;;;;;;;;;-4.50;99.90;;;;;;5053854;28;20485;-72
2021/12/26 07:08:46;;;;;;;;;;;-4.10;99.90;;;;;;5045958;28;20603;-72
2021/12/26 07:11:11;;;;;;;;;;;-3.90;99.90;;;;;;5032990;28;20277;-73
2021/12/26 07:13:37;;;;;;;;;;;-3.50;99.90;;;;;;5040259;28;19958;-71
2021/12/26 07:16:03;;;;;;;;;;;-2.90;99.90;;;;;;5071583;28;19913;-71
2021/12/26 07:18:28;;;;;;;;;;;-2.90;99.90;;;;;;5053411;28;19908;-72
2021/12/26 07:20:54;;;;;;;;;;;-3.40;99.90;;;;;;5053105;28;19912;-72
2021/12/26 07:23:20;;;;;;;;;;;-3.90;99.90;;;;;;5053041;28;19960;-72
2021/12/26 07:25:45;;;;;;;;;;;-4.20;99.90;;;;;;5053016;28;19908;-72
2021/12/26 07:28:11;;;;;;;;;;;-4.50;99.90;;;;;;5071172;28;20029;-72
2021/12/26 07:30:37;;;;;;;;;;;-4.60;99.90;;;;;;5070842;28;19915;-72
2021/12/26 07:33:02;;;;;;;;;;;-3.90;99.90;;;;;;5052910;28;19955;-72
2021/12/26 07:35:28;;;;;;;;;;;-2.60;99.90;;;;;;5071259;28;19932;-71
2021/12/26 07:37:54;;;;;;;;;;;-1.30;99.90;;;;;;5071639;28;19908;-71
2021/12/26 07:40:20;;;;;;;;;;;-0.30;99.90;;;;;;5052424;28;20364;-70
2021/12/26 07:42:46;;;;;;;;;;;-0.80;99.90;;;;;;5071479;28;19912;-72
2021/12/26 07:45:11;;;;;;;;;;;-1.00;99.90;;;;;;5070683;28;19908;-72
2021/12/26 07:47:37;;;;;;;;;;;-1.00;99.90;;;;;;5071103;28;20286;-72
2021/12/26 07:50:03;;;;;;;;;;;-1.00;99.90;;;;;;5052114;28;19920;-72
2021/12/26 07:52:33;;;;;;;;;;;-0.80;99.90;;;;;;5052825;28;20319;-72
2021/12/26 07:55:00;;;;;;;;;;;-0.30;99.90;;;;;;5052593;28;19912;-71
2021/12/26 07:57:26;;;;;;;;;;;0.20;99.90;;;;;;5071330;28;20245;-71
2021/12/26 07:59:51;;;;;;;;;;;0.80;99.90;;;;;;5070143;28;20011;-71
2021/12/26 08:02:18;;;;;;;;;;;0.80;99.90;;;;;;5052864;28;20284;-72
2021/12/26 08:04:45;;;;;;;;;;;0.20;99.90;;;;;;5070282;28;19908;-71
2021/12/26 08:07:10;;;;;;;;;;;0.00;99.90;;;;;;5071095;28;19912;-71
2021/12/26 08:09:36;;;;;;;;;;;0.20;99.90;;;;;;5069799;28;19981;-71
2021/12/26 08:12:02;;;;;;;;;;;0.00;99.90;;;;;;5070914;28;20290;-72
2021/12/26 08:14:27;;;;;;;;;;;-0.90;99.90;;;;;;5070156;28;19909;-71
2021/12/26 08:16:53;;;;;;;;;;;-1.10;99.90;;;;;;5071101;28;19912;-71
2021/12/26 08:19:18;;;;;;;;;;;-0.90;99.90;;;;;;5052033;28;20015;-71
2021/12/26 08:21:44;;;;;;;;;;;-0.60;99.90;;;;;;5071159;28;19919;-71
2021/12/26 08:24:11;;;;;;;;;;;-0.80;99.90;;;;;;5070071;28;19908;-72
2021/12/26 08:26:37;;;;;;;;;;;-0.60;99.90;;;;;;5070790;28;20341;-70
2021/12/26 08:29:02;;;;;;;;;;;-0.60;99.90;;;;;;5051818;28;19923;-71
2021/12/26 08:31:29;;;;;;;;;;;-0.60;99.90;;;;;;5070951;28;20069;-72
2021/12/26 08:33:54;;;;;;;;;;;-0.60;99.90;;;;;;5070202;28;19912;-72
2021/12/26 08:36:20;;;;;;;;;;;-0.90;99.90;;;;;;5070775;28;19931;-71
2021/12/26 08:38:46;;;;;;;;;;;-1.00;99.90;;;;;;5067387;28;19915;-71
2021/12/26 08:41:12;;;;;;;;;;;-0.90;99.90;;;;;;5052042;28;20491;-71
2021/12/26 08:43:38;;;;;;;;;;;-0.80;99.90;;;;;;5070386;28;20015;-73
2021/12/26 08:46:03;;;;;;;;;;;-0.60;99.90;;;;;;5070526;28;19912;-72
2021/12/26 08:48:29;;;;;;;;;;;-0.70;99.90;;;;;;5052211;28;19977;-71
2021/12/26 08:50:55;;;;;;;;;;;-0.50;99.90;;;;;;5070085;28;19917;-72
2021/12/26 08:53:25;;;;;;;;;;;-0.60;99.90;;;;;;5052223;28;19909;-72
2021/12/26 08:55:51;;;;;;;;;;;-0.50;99.90;;;;;;5070409;28;19958;-73
2021/12/26 08:58:17;;;;;;;;;;;-0.60;99.90;;;;;;5070289;28;19948;-73
2021/12/26 09:00:42;;;;;;;;;;;-0.90;99.90;;;;;;5052083;28;20339;-72
2021/12/26 09:03:08;;;;;;;;;;;-1.10;99.90;;;;;;5052005;28;19905;-73
2021/12/26 09:05:33;;;;;;;;;;;-1.00;99.90;;;;;;5070583;28;19911;-73
2021/12/26 09:07:59;;;;;;;;;;;-1.40;99.90;;;;;;5069699;28;19904;-73
2021/12/26 09:10:25;;;;;;;;;;;-1.40;99.90;;;;;;5052012;28;19998;-73
2021/12/26 09:12:50;;;;;;;;;;;-1.30;99.90;;;;;;5070663;28;20392;-73
2021/12/26 09:15:16;;;;;;;;;;;-1.40;99.90;;;;;;5070151;28;20296;-71
2021/12/26 09:17:42;;;;;;;;;;;-1.40;99.90;;;;;;5070883;28;19919;-71
2021/12/26 09:20:07;;;;;;;;;;;-1.60;99.90;;;;;;5050753;28;19977;-72
2021/12/26 09:22:33;;;;;;;;;;;-1.90;99.90;;;;;;5052490;28;19917;-72
2021/12/26 09:24:59;;;;;;;;;;;-1.70;99.90;;;;;;5071211;28;19904;-71
2021/12/26 09:27:24;;;;;;;;;;;-1.70;99.90;;;;;;5074133;28;19919;-71
2021/12/26 09:29:50;;;;;;;;;;;-1.60;99.90;;;;;;5056743;28;19909;-71
2021/12/26 09:32:16;;;;;;;;;;;-1.70;99.90;;;;;;5054401;28;19913;-71
2021/12/26 09:34:41;;;;;;;;;;;-2.00;99.90;;;;;;5050667;28;19911;-71
2021/12/26 09:37:09;;;;;;;;;;;-1.90;99.90;;;;;;5074101;28;20271;-71
2021/12/26 09:39:34;;;;;;;;;;;-1.70;99.90;;;;;;5072995;28;19904;-72
2021/12/26 09:42:00;;;;;;;;;;;-1.50;99.90;;;;;;5073575;28;20322;-72
2021/12/26 09:44:26;;;;;;;;;;;-1.30;99.90;;;;;;5072972;28;19908;-71
2021/12/26 09:46:51;;;;;;;;;;;-1.40;99.90;;;;;;5073501;28;20020;-71
2021/12/26 09:49:17;;;;;;;;;;;-1.70;99.90;;;;;;5072818;28;19912;-72
2021/12/26 09:51:43;;;;;;;;;;;-1.70;99.90;;;;;;5073453;28;20272;-70
2021/12/26 09:54:09;;;;;;;;;;;-1.60;99.90;;;;;;5072743;28;19912;-71
2021/12/26 09:56:35;;;;;;;;;;;-1.40;99.90;;;;;;5055316;28;19919;-71
2021/12/26 09:59:03;;;;;;;;;;;-1.40;99.90;;;;;;5072684;28;19905;-72
2021/12/26 10:01:33;;;;;;;;;;;-1.30;99.90;;;;;;5073657;28;19919;-69
2021/12/26 10:03:59;;;;;;;;;;;-1.30;99.90;;;;;;5054768;28;19919;-71
2021/12/26 10:06:25;;;;;;;;;;;-1.20;99.90;;;;;;5073082;28;19916;-71
2021/12/26 10:08:59;;;;;;;;;;;-1.10;99.90;;;;;;5072377;28;19912;-70
2021/12/26 10:11:29;;;;;;;;;;;-1.10;99.90;;;;;;5073236;28;19988;-73
2021/12/26 10:13:56;;;;;;;;;;;-1.20;99.90;;;;;;5054446;28;19904;-71
2021/12/26 10:16:23;;;;;;;;;;;-1.40;99.90;;;;;;5072755;28;19913;-70
2021/12/26 10:18:49;;;;;;;;;;;-1.40;99.90;;;;;;5072899;28;19911;-71
2021/12/26 10:21:27;;;;;;;;;;;-1.10;99.90;;;;;;5054455;28;19912;-70
2021/12/26 10:23:54;;;;;;;;;;;-0.90;99.90;;;;;;5063645;28;20345;-71
2021/12/26 10:26:24;;;;;;;;;;;-1.00;99.90;;;;;;5052460;28;19912;-71
2021/12/26 10:29:09;;;;;;;;;;;-1.30;99.90;;;;;;5042370;28;19915;-71
2021/12/26 10:31:35;;;;;;;;;;;-1.50;99.90;;;;;;5073159;28;20302;-71
2021/12/26 10:34:01;;;;;;;;;;;-1.60;99.90;;;;;;5052874;28;19915;-71
2021/12/26 10:36:27;;;;;;;;;;;-1.50;99.90;;;;;;5054020;28;19913;-70
2021/12/26 10:39:13;;;;;;;;;;;-1.30;99.90;;;;;;5062989;28;19954;-71
2021/12/26 10:41:42;;;;;;;;;;;-1.10;99.90;;;;;;5052411;28;19962;-71
2021/12/26 10:44:28;;;;;;;;;;;-1.00;99.90;;;;;;5062599;28;19904;-71
2021/12/26 10:46:58;;;;;;;;;;;-1.00;99.90;;;;;;5061980;28;19919;-71
2021/12/26 10:49:26;;;;;;;;;;;-1.00;99.90;;;;;;5053422;28;19908;-70
2021/12/26 10:51:51;;;;;;;;;;;-1.10;99.90;;;;;;5054297;28;19927;-71
2021/12/26 10:54:19;;;;;;;;;;;-1.10;99.90;;;;;;5071641;28;19904;-70
2021/12/26 10:57:14;;;;;;;;;;;-1.10;99.90;;;;;;5072382;28;20341;-70
2021/12/26 10:59:41;;;;;;;;;;;-1.00;99.90;;;;;;5044910;28;20280;-70
2021/12/26 11:02:07;;;;;;;;;;;-1.00;99.90;;;;;;5072509;28;19912;-70
2021/12/26 11:04:33;;;;;;;;;;;-1.10;99.90;;;;;;5071266;28;19918;-73
2021/12/26 11:07:09;;;;;;;;;;;-1.00;99.90;;;;;;5071828;28;20319;-71
2021/12/26 11:09:35;;;;;;;;;;;-1.00;99.90;;;;;;5052986;28;19915;-71
2021/12/26 11:12:01;;;;;;;;;;;-0.90;99.90;;;;;;5072270;28;20263;-71
2021/12/26 11:14:27;;;;;;;;;;;-0.90;99.90;;;;;;5053417;28;19905;-72
2021/12/26 11:16:52;;;;;;;;;;;-1.00;99.90;;;;;;5053801;28;19912;-71
2021/12/26 11:19:37;;;;;;;;;;;-0.90;99.90;;;;;;5053467;28;19915;-72
2021/12/26 11:22:03;;;;;;;;;;;-0.70;99.90;;;;;;5071655;28;19969;-72
2021/12/26 11:24:29;;;;;;;;;;;-0.40;99.90;;;;;;5071466;28;20010;-72
2021/12/26 11:26:54;;;;;;;;;;;-0.10;99.90;;;;;;5071757;28;20360;-73
2021/12/26 11:29:20;;;;;;;;;;;0.10;99.90;;;;;;5070888;28;19995;-73
2021/12/26 11:31:48;;;;;;;;;;;0.10;99.90;;;;;;5071725;28;19919;-73
2021/12/26 11:34:14;;;;;;;;;;;0.50;99.90;;;;;;5071013;28;19908;-71
2021/12/26 11:36:39;;;;;;;;;;;0.90;99.90;;;;;;5071422;28;19919;-71
2021/12/26 11:39:08;;;;;;;;;;;1.30;99.90;;;;;;5052585;28;19904;-72
2021/12/26 11:42:00;;;;;;;;;;;1.30;99.90;;;;;;5053332;28;19921;-70
2021/12/26 11:44:26;;;;;;;;;;;1.30;99.90;;;;;;5067900;28;20375;-70
2021/12/26 11:46:54;;;;;;;;;;;1.40;99.90;;;;;;5071378;28;19916;-71
2021/12/26 11:49:37;;;;;;;;;;;1.20;99.90;;;;;;5052362;28;19997;-72
2021/12/26 11:52:21;;;;;;;;;;;1.00;99.90;;;;;;5053340;28;19924;-71
2021/12/26 11:54:47;;;;;;;;;;;0.70;99.90;;;;;;5052910;28;20437;-70
2021/12/26 11:57:16;;;;;;;;;;;0.20;99.90;;;;;;5071287;28;19950;-70
2021/12/26 12:00:00;;;;;;;;;;;0.50;99.90;;;;;;5070487;28;20351;-71
2021/12/26 12:02:36;;;;;;;;;;;0.30;99.90;;;;;;5071353;28;20363;-71
2021/12/26 12:05:12;;;;;;;;;;;0.00;99.90;;;;;;5070428;28;19904;-71
2021/12/26 12:07:45;;;;;;;;;;;0.10;99.90;;;;;;5071220;28;19912;-70
2021/12/26 12:10:29;;;;;;;;;;;0.00;99.90;;;;;;5051977;28;19915;-71
2021/12/26 12:12:55;;;;;;;;;;;-0.10;99.90;;;;;;5070640;28;20322;-71
2021/12/26 12:15:40;;;;;;;;;;;-0.50;99.90;;;;;;5050507;28;19913;-71
2021/12/26 12:18:07;;;;;;;;;;;-1.00;99.90;;;;;;5034926;28;19952;-71
2021/12/26 12:20:33;;;;;;;;;;;-1.40;99.90;;;;;;5070795;28;19908;-71
2021/12/26 12:23:06;;;;;;;;;;;-1.50;99.90;;;;;;5070425;28;19927;-71
2021/12/26 12:25:39;;;;;;;;;;;-1.60;99.90;;;;;;5052716;28;19995;-69
2021/12/26 12:28:06;;;;;;;;;;;-1.80;99.90;;;;;;5052399;28;19904;-71
2021/12/26 12:30:32;;;;;;;;;;;-1.90;99.90;;;;;;5052257;28;19908;-72
2021/12/26 12:33:16;;;;;;;;;;;-1.90;99.90;;;;;;5052849;28;20008;-70
2021/12/26 12:35:48;;;;;;;;;;;-1.90;99.90;;;;;;5070734;28;19962;-70
2021/12/26 12:38:22;;;;;;;;;;;-1.90;99.90;;;;;;5048907;28;19909;-70
2021/12/26 12:40:48;;;;;;;;;;;-1.90;99.90;;;;;;5031825;28;20439;-71
2021/12/26 12:43:16;;;;;;;;;;;-1.90;99.90;;;;;;5053420;28;20332;-71
2021/12/26 12:48:20;;;;;;;;;;;-1.90;99.90;;;;;;5069968;28;20042;-71
2021/12/26 12:50:46;;;;;;;;;;;-2.00;99.90;;;;;;5070103;28;19927;-71
2021/12/26 12:53:31;;;;;;;;;;;-2.00;99.90;;;;;;5052094;28;19916;-71
2021/12/26 12:55:57;;;;;;;;;;;-2.00;99.90;;;;;;5070066;28;19908;-71
2021/12/26 12:58:26;;;;;;;;;;;-2.00;99.90;;;;;;5072788;28;19919;-70
2021/12/26 13:00:51;;;;;;;;;;;-2.00;99.90;;;;;;5073593;28;19916;-70
2021/12/26 13:03:19;;;;;;;;;;;-2.00;99.90;;;;;;5073920;28;19931;-70
2021/12/26 13:05:46;;;;;;;;;;;-2.00;99.90;;;;;;5056056;28;20378;-70
2021/12/26 13:08:13;;;;;;;;;;;-2.10;99.90;;;;;;5073615;28;19912;-71
2021/12/26 13:10:39;;;;;;;;;;;-2.10;99.90;;;;;;5055192;28;19908;-71
2021/12/26 13:13:08;;;;;;;;;;;-2.10;99.90;;;;;;5055944;28;20256;-71
2021/12/26 13:15:34;;;;;;;;;;;-2.20;99.90;;;;;;5074235;28;20389;-71
2021/12/26 13:18:04;;;;;;;;;;;-2.20;99.90;;;;;;5055621;28;19912;-72
2021/12/26 13:20:29;;;;;;;;;;;-2.20;99.90;;;;;;5073369;28;20002;-71
2021/12/26 13:23:04;;;;;;;;;;;-2.20;99.90;;;;;;5074226;28;19955;-71
2021/12/26 13:25:32;;;;;;;;;;;-2.20;99.90;;;;;;5055757;28;19940;-72
2021/12/26 13:27:59;;;;;;;;;;;-2.20;99.90;;;;;;5073716;28;19919;-72
2021/12/26 13:30:26;;;;;;;;;;;-2.20;99.90;;;;;;5054849;28;19909;-70
2021/12/26 13:32:52;;;;;;;;;;;-2.20;99.90;;;;;;5074143;28;19920;-71
2021/12/26 13:35:18;;;;;;;;;;;-2.20;99.90;;;;;;5073378;28;19914;-70
2021/12/26 13:37:43;;;;;;;;;;;-2.30;99.90;;;;;;5055605;28;19912;-70
2021/12/26 13:40:10;;;;;;;;;;;-2.20;99.90;;;;;;5053724;28;19928;-70
2021/12/26 13:42:36;;;;;;;;;;;-2.30;99.90;;;;;;5053594;28;19916;-71
2021/12/26 13:45:03;;;;;;;;;;;-2.20;99.90;;;;;;5053263;28;19904;-72
2021/12/26 13:47:37;;;;;;;;;;;-2.20;99.90;;;;;;5073536;28;19913;-70
2021/12/26 13:50:10;;;;;;;;;;;-2.30;99.90;;;;;;5054746;28;19958;-72
2021/12/26 13:52:36;;;;;;;;;;;-2.30;99.90;;;;;;5055629;28;19912;-71
2021/12/26 13:55:02;;;;;;;;;;;-2.30;99.90;;;;;;5072783;28;19904;-70
2021/12/26 13:57:28;;;;;;;;;;;-2.30;99.90;;;;;;5055364;28;19912;-72
2021/12/26 13:59:55;;;;;;;;;;;-2.30;99.90;;;;;;5054891;28;20399;-71
2021/12/26 14:02:24;;;;;;;;;;;-2.30;99.90;;;;;;5073570;28;20347;-70
2021/12/26 14:04:53;;;;;;;;;;;-2.40;99.90;;;;;;5056450;28;19952;-70
2021/12/26 14:07:20;;;;;;;;;;;-2.40;99.90;;;;;;5053295;28;19927;-70
2021/12/26 14:09:46;;;;;;;;;;;-2.30;99.90;;;;;;5049774;28;19915;-70
2021/12/26 14:12:29;;;;;;;;;;;-2.40;99.90;;;;;;5073245;28;20375;-71
2021/12/26 14:14:57;;;;;;;;;;;-2.40;99.90;;;;;;5072440;28;19991;-71
2021/12/26 14:17:23;;;;;;;;;;;-2.40;99.90;;;;;;5073068;28;19960;-71
2021/12/26 14:19:53;;;;;;;;;;;-2.40;99.90;;;;;;5072192;28;19943;-70
2021/12/26 14:22:26;;;;;;;;;;;-2.40;99.90;;;;;;5073259;28;19912;-70
2021/12/26 14:24:51;;;;;;;;;;;-2.50;99.90;;;;;;5037793;28;19935;-71
2021/12/26 14:27:20;;;;;;;;;;;-2.50;99.90;;;;;;5052528;28;19917;-71
2021/12/26 14:29:46;;;;;;;;;;;-2.40;99.90;;;;;;5049700;28;19912;-70